sensor_id;sensor_type;location;lat;lon;timestamp;pressure;altitude;pressure_sealevel;temperature;humidity
31062;BME280;17724;53.546;9.974;2023-09-18T00:00:14;101023.44;;;21.45;81.85
31062;BME280;17724;53.546;9.974;2023-09-18T00:04:14;101015.22;;;21.48;81.58
31062;BME280;17724;53.546;9.974;2023-09-18T00:08:16;101009.78;;;21.34;82.38
31062;BME280;17724;53.546;9.974;2023-09-18T00:12:17;101011.25;;;21.40;81.65
31062;BME280;17724;53.546;9.974;2023-09-18T00:16:17;101003.63;;;21.24;82.37
31062;BME280;17724;53.546;9.974;2023-09-18T00:20:18;100993.31;;;21.33;81.99
31062;BME280;17724;53.546;9.974;2023-09-18T00:28:19;100989.31;;;21.25;81.89
31062;BME280;17724;53.546;9.974;2023-09-18T00:32:19;100968.44;;;21.31;81.83
31062;BME280;17724;53.546;9.974;2023-09-18T00:36:20;100962.31;;;21.21;82.20
31062;BME280;17724;53.546;9.974;2023-09-18T00:40:20;100957.06;;;21.19;81.90
31062;BME280;17724;53.546;9.974;2023-09-18T00:44:22;100957.19;;;21.14;82.33
31062;BME280;17724;53.546;9.974;2023-09-18T00:48:22;100956.19;;;21.10;82.29
31062;BME280;17724;53.546;9.974;2023-09-18T00:52:23;100945.34;;;21.08;82.31
31062;BME280;17724;53.546;9.974;2023-09-18T00:56:25;100948.97;;;21.09;82.64
31062;BME280;17724;53.546;9.974;2023-09-18T01:00:25;100937.78;;;21.00;82.99
31062;BME280;17724;53.546;9.974;2023-09-18T01:04:26;100943.69;;;20.99;83.29
31062;BME280;17724;53.546;9.974;2023-09-18T01:08:29;100937.56;;;20.88;83.86
31062;BME280;17724;53.546;9.974;2023-09-18T01:12:40;100940.06;;;20.98;83.44
31062;BME280;17724;53.546;9.974;2023-09-18T01:16:50;100918.31;;;20.86;84.09
31062;BME280;17724;53.546;9.974;2023-09-18T01:20:54;100921.97;;;20.87;84.25
31062;BME280;17724;53.546;9.974;2023-09-18T01:24:56;100912.88;;;20.81;84.64
31062;BME280;17724;53.546;9.974;2023-09-18T01:28:56;100906.00;;;20.87;84.04
31062;BME280;17724;53.546;9.974;2023-09-18T01:32:58;100893.47;;;20.76;84.52
31062;BME280;17724;53.546;9.974;2023-09-18T01:37:00;100893.28;;;20.64;85.60
31062;BME280;17724;53.546;9.974;2023-09-18T01:41:01;100885.38;;;20.66;85.35
31062;BME280;17724;53.546;9.974;2023-09-18T01:45:02;100881.13;;;20.69;85.14
31062;BME280;17724;53.546;9.974;2023-09-18T01:49:03;100868.13;;;20.64;85.35
31062;BME280;17724;53.546;9.974;2023-09-18T01:53:04;100859.56;;;20.60;85.54
31062;BME280;17724;53.546;9.974;2023-09-18T01:57:04;100863.41;;;20.42;86.43
31062;BME280;17724;53.546;9.974;2023-09-18T02:01:05;100841.75;;;20.48;85.93
31062;BME280;17724;53.546;9.974;2023-09-18T02:05:06;100848.69;;;20.50;86.21
31062;BME280;17724;53.546;9.974;2023-09-18T02:09:07;100837.94;;;20.35;86.62
31062;BME280;17724;53.546;9.974;2023-09-18T02:13:11;100829.63;;;20.12;88.33
31062;BME280;17724;53.546;9.974;2023-09-18T02:17:11;100817.00;;;20.15;88.22
31062;BME280;17724;53.546;9.974;2023-09-18T02:21:21;100797.56;;;20.01;88.52
31062;BME280;17724;53.546;9.974;2023-09-18T02:25:21;100807.25;;;19.95;89.08
31062;BME280;17724;53.546;9.974;2023-09-18T02:29:22;100802.81;;;20.03;88.66
31062;BME280;17724;53.546;9.974;2023-09-18T02:33:23;100794.94;;;20.05;88.56
31062;BME280;17724;53.546;9.974;2023-09-18T02:37:23;100808.56;;;20.06;88.47
31062;BME280;17724;53.546;9.974;2023-09-18T02:41:24;100803.84;;;20.07;89.01
31062;BME280;17724;53.546;9.974;2023-09-18T02:45:25;100804.00;;;20.10;88.50
31062;BME280;17724;53.546;9.974;2023-09-18T02:49:25;100795.63;;;20.10;88.55
31062;BME280;17724;53.546;9.974;2023-09-18T02:53:26;100791.81;;;20.06;88.80
31062;BME280;17724;53.546;9.974;2023-09-18T02:57:26;100782.16;;;20.04;88.71
31062;BME280;17724;53.546;9.974;2023-09-18T03:01:27;100787.09;;;20.07;88.45
31062;BME280;17724;53.546;9.974;2023-09-18T03:05:27;100795.31;;;20.12;88.19
31062;BME280;17724;53.546;9.974;2023-09-18T03:09:29;100798.28;;;20.15;88.26
31062;BME280;17724;53.546;9.974;2023-09-18T03:13:30;100786.91;;;20.03;88.65
31062;BME280;17724;53.546;9.974;2023-09-18T03:17:31;100786.81;;;20.26;87.52
31062;BME280;17724;53.546;9.974;2023-09-18T03:21:32;100774.00;;;20.25;87.44
31062;BME280;17724;53.546;9.974;2023-09-18T03:25:36;100761.50;;;20.22;87.72
31062;BME280;17724;53.546;9.974;2023-09-18T03:29:37;100755.59;;;20.24;87.91
31062;BME280;17724;53.546;9.974;2023-09-18T03:33:38;100743.16;;;19.90;89.55
31062;BME280;17724;53.546;9.974;2023-09-18T03:37:38;100744.78;;;19.82;89.98
31062;BME280;17724;53.546;9.974;2023-09-18T03:41:39;100742.97;;;19.86;90.32
31062;BME280;17724;53.546;9.974;2023-09-18T03:45:40;100723.94;;;19.80;90.65
31062;BME280;17724;53.546;9.974;2023-09-18T03:49:43;100716.38;;;19.80;90.40
31062;BME280;17724;53.546;9.974;2023-09-18T03:53:44;100718.34;;;19.80;90.36
31062;BME280;17724;53.546;9.974;2023-09-18T03:57:44;100716.69;;;19.79;90.55
31062;BME280;17724;53.546;9.974;2023-09-18T04:01:47;100709.81;;;19.85;90.36
31062;BME280;17724;53.546;9.974;2023-09-18T04:05:48;100697.63;;;19.72;90.85
31062;BME280;17724;53.546;9.974;2023-09-18T04:09:49;100697.66;;;19.81;90.65
31062;BME280;17724;53.546;9.974;2023-09-18T04:13:49;100680.41;;;19.79;90.84
31062;BME280;17724;53.546;9.974;2023-09-18T04:17:50;100673.00;;;19.74;90.57
31062;BME280;17724;53.546;9.974;2023-09-18T04:21:51;100676.50;;;19.80;90.66
31062;BME280;17724;53.546;9.974;2023-09-18T04:25:53;100670.41;;;19.78;90.47
31062;BME280;17724;53.546;9.974;2023-09-18T04:29:53;100660.19;;;19.64;91.56
31062;BME280;17724;53.546;9.974;2023-09-18T04:33:55;100664.75;;;19.60;92.13
31062;BME280;17724;53.546;9.974;2023-09-18T04:37:56;100654.41;;;19.61;91.65
31062;BME280;17724;53.546;9.974;2023-09-18T04:41:57;100642.56;;;19.55;92.45
31062;BME280;17724;53.546;9.974;2023-09-18T04:45:58;100633.88;;;19.57;92.26
31062;BME280;17724;53.546;9.974;2023-09-18T04:49:58;100626.78;;;19.51;92.44
31062;BME280;17724;53.546;9.974;2023-09-18T04:53:59;100617.28;;;19.43;93.73
31062;BME280;17724;53.546;9.974;2023-09-18T04:58:00;100617.91;;;19.40;93.10
31062;BME280;17724;53.546;9.974;2023-09-18T05:02:01;100597.66;;;19.26;93.72
31062;BME280;17724;53.546;9.974;2023-09-18T05:06:03;100574.06;;;19.23;93.49
31062;BME280;17724;53.546;9.974;2023-09-18T05:10:04;100585.16;;;19.14;94.73
31062;BME280;17724;53.546;9.974;2023-09-18T05:14:05;100578.88;;;19.40;93.86
31062;BME280;17724;53.546;9.974;2023-09-18T05:18:06;100557.44;;;19.18;94.62
31062;BME280;17724;53.546;9.974;2023-09-18T05:22:08;100551.09;;;19.26;93.90
31062;BME280;17724;53.546;9.974;2023-09-18T05:26:10;100539.91;;;19.17;93.86
31062;BME280;17724;53.546;9.974;2023-09-18T05:30:15;100543.53;;;19.27;92.64
31062;BME280;17724;53.546;9.974;2023-09-18T05:34:16;100544.41;;;19.36;92.30
31062;BME280;17724;53.546;9.974;2023-09-18T05:38:16;100543.72;;;19.30;92.51
31062;BME280;17724;53.546;9.974;2023-09-18T05:42:18;100544.06;;;19.37;92.36
31062;BME280;17724;53.546;9.974;2023-09-18T05:46:18;100541.81;;;19.57;91.50
31062;BME280;17724;53.546;9.974;2023-09-18T05:50:19;100520.84;;;19.59;90.79
31062;BME280;17724;53.546;9.974;2023-09-18T05:54:19;100516.72;;;19.48;91.59
31062;BME280;17724;53.546;9.974;2023-09-18T05:58:20;100527.03;;;19.48;91.47
31062;BME280;17724;53.546;9.974;2023-09-18T06:02:24;100523.13;;;19.57;91.25
31062;BME280;17724;53.546;9.974;2023-09-18T06:06:25;100502.41;;;19.41;91.77
31062;BME280;17724;53.546;9.974;2023-09-18T06:10:25;100506.84;;;19.51;91.57
31062;BME280;17724;53.546;9.974;2023-09-18T06:14:26;100498.81;;;19.49;91.55
31062;BME280;17724;53.546;9.974;2023-09-18T06:18:26;100502.94;;;19.60;91.53
31062;BME280;17724;53.546;9.974;2023-09-18T06:22:27;100500.19;;;19.69;90.94
31062;BME280;17724;53.546;9.974;2023-09-18T06:26:27;100502.16;;;19.68;90.34
31062;BME280;17724;53.546;9.974;2023-09-18T06:30:29;100494.75;;;19.99;89.87
31062;BME280;17724;53.546;9.974;2023-09-18T06:34:31;100485.91;;;20.05;89.18
31062;BME280;17724;53.546;9.974;2023-09-18T06:38:31;100481.13;;;20.06;89.62
31062;BME280;17724;53.546;9.974;2023-09-18T06:42:32;100468.31;;;20.13;89.12
31062;BME280;17724;53.546;9.974;2023-09-18T06:46:33;100458.13;;;20.17;88.83
31062;BME280;17724;53.546;9.974;2023-09-18T06:50:33;100452.38;;;20.14;89.66
31062;BME280;17724;53.546;9.974;2023-09-18T06:54:34;100448.25;;;20.29;89.96
31062;BME280;17724;53.546;9.974;2023-09-18T06:58:35;100433.28;;;20.33;88.92
31062;BME280;17724;53.546;9.974;2023-09-18T07:02:35;100424.59;;;20.35;89.04
31062;BME280;17724;53.546;9.974;2023-09-18T07:06:36;100432.22;;;20.00;90.40
31062;BME280;17724;53.546;9.974;2023-09-18T07:10:38;100430.41;;;20.12;89.93
31062;BME280;17724;53.546;9.974;2023-09-18T07:14:38;100407.34;;;20.33;89.32
31062;BME280;17724;53.546;9.974;2023-09-18T07:18:39;100394.50;;;20.40;88.86
31062;BME280;17724;53.546;9.974;2023-09-18T07:22:40;100390.88;;;20.49;87.75
31062;BME280;17724;53.546;9.974;2023-09-18T07:26:45;100388.25;;;20.52;88.34
31062;BME280;17724;53.546;9.974;2023-09-18T07:30:47;100383.22;;;20.66;86.90
31062;BME280;17724;53.546;9.974;2023-09-18T07:34:47;100419.94;;;20.95;87.68
31062;BME280;17724;53.546;9.974;2023-09-18T07:38:48;100395.31;;;21.09;86.74
31062;BME280;17724;53.546;9.974;2023-09-18T07:42:48;100390.25;;;21.02;86.79
31062;BME280;17724;53.546;9.974;2023-09-18T07:46:48;100373.44;;;21.11;86.16
31062;BME280;17724;53.546;9.974;2023-09-18T07:50:49;100382.75;;;21.45;84.93
31062;BME280;17724;53.546;9.974;2023-09-18T07:54:49;100368.31;;;21.43;84.32
31062;BME280;17724;53.546;9.974;2023-09-18T07:58:50;100371.28;;;21.37;84.96
31062;BME280;17724;53.546;9.974;2023-09-18T08:02:51;100357.69;;;21.27;85.00
31062;BME280;17724;53.546;9.974;2023-09-18T08:06:54;100347.06;;;21.42;85.18
31062;BME280;17724;53.546;9.974;2023-09-18T08:10:55;100352.53;;;21.59;84.56
31062;BME280;17724;53.546;9.974;2023-09-18T08:14:56;100359.53;;;21.65;84.23
31062;BME280;17724;53.546;9.974;2023-09-18T08:19:01;100396.41;;;21.67;85.23
31062;BME280;17724;53.546;9.974;2023-09-18T08:23:01;100397.34;;;21.71;84.92
31062;BME280;17724;53.546;9.974;2023-09-18T08:27:05;100383.91;;;21.64;85.86
31062;BME280;17724;53.546;9.974;2023-09-18T08:31:06;100386.25;;;21.62;86.74
31062;BME280;17724;53.546;9.974;2023-09-18T08:35:06;100380.78;;;21.45;87.97
31062;BME280;17724;53.546;9.974;2023-09-18T08:39:07;100400.03;;;21.47;88.56
31062;BME280;17724;53.546;9.974;2023-09-18T08:43:10;100392.16;;;21.19;90.64
31062;BME280;17724;53.546;9.974;2023-09-18T08:47:14;100383.91;;;21.23;90.66
31062;BME280;17724;53.546;9.974;2023-09-18T08:51:15;100385.50;;;21.32;91.44
31062;BME280;17724;53.546;9.974;2023-09-18T08:55:17;100385.31;;;21.29;91.18
31062;BME280;17724;53.546;9.974;2023-09-18T08:59:21;100372.63;;;21.31;90.85
31062;BME280;17724;53.546;9.974;2023-09-18T09:03:22;100384.13;;;21.38;92.47
31062;BME280;17724;53.546;9.974;2023-09-18T09:07:23;100385.28;;;21.37;91.70
31062;BME280;17724;53.546;9.974;2023-09-18T09:11:23;100384.13;;;21.59;91.21
31062;BME280;17724;53.546;9.974;2023-09-18T09:15:27;100373.88;;;21.63;89.67
31062;BME280;17724;53.546;9.974;2023-09-18T09:19:30;100374.38;;;21.78;89.42
31062;BME280;17724;53.546;9.974;2023-09-18T09:23:52;100355.59;;;22.11;88.63
31062;BME280;17724;53.546;9.974;2023-09-18T09:27:54;100347.69;;;22.26;87.85
31062;BME280;17724;53.546;9.974;2023-09-18T09:31:55;100337.09;;;22.44;87.49
31062;BME280;17724;53.546;9.974;2023-09-18T09:35:57;100350.28;;;22.55;86.68
31062;BME280;17724;53.546;9.974;2023-09-18T09:40:03;100348.66;;;22.67;86.35
31062;BME280;17724;53.546;9.974;2023-09-18T09:44:09;100348.53;;;22.75;85.59
31062;BME280;17724;53.546;9.974;2023-09-18T09:48:09;100346.66;;;23.04;85.02
31062;BME280;17724;53.546;9.974;2023-09-18T09:52:18;100341.50;;;23.18;84.23
31062;BME280;17724;53.546;9.974;2023-09-18T09:56:21;100329.25;;;23.10;83.47
31062;BME280;17724;53.546;9.974;2023-09-18T10:00:23;100323.88;;;23.33;82.78
31062;BME280;17724;53.546;9.974;2023-09-18T10:04:28;100320.03;;;23.38;81.04
31062;BME280;17724;53.546;9.974;2023-09-18T10:08:31;100317.94;;;23.63;80.63
31062;BME280;17724;53.546;9.974;2023-09-18T10:12:33;100331.06;;;23.59;80.66
31062;BME280;17724;53.546;9.974;2023-09-18T10:16:34;100348.59;;;23.56;80.38
31062;BME280;17724;53.546;9.974;2023-09-18T10:20:39;100342.81;;;23.65;80.11
31062;BME280;17724;53.546;9.974;2023-09-18T10:24:46;100353.75;;;23.66;80.24
31062;BME280;17724;53.546;9.974;2023-09-18T10:28:48;100336.38;;;23.76;80.02
31062;BME280;17724;53.546;9.974;2023-09-18T10:32:53;100339.69;;;23.94;79.40
31062;BME280;17724;53.546;9.974;2023-09-18T10:36:54;100334.59;;;24.00;78.79
31062;BME280;17724;53.546;9.974;2023-09-18T10:40:56;100337.47;;;23.88;78.67
31062;BME280;17724;53.546;9.974;2023-09-18T10:44:57;100321.97;;;23.94;78.46
31062;BME280;17724;53.546;9.974;2023-09-18T10:49:00;100338.50;;;23.95;78.85
31062;BME280;17724;53.546;9.974;2023-09-18T10:53:01;100351.75;;;24.11;78.76
31062;BME280;17724;53.546;9.974;2023-09-18T10:57:03;100340.94;;;24.13;78.65
31062;BME280;17724;53.546;9.974;2023-09-18T11:01:04;100357.38;;;24.11;78.51
31062;BME280;17724;53.546;9.974;2023-09-18T11:05:05;100350.38;;;24.20;79.02
31062;BME280;17724;53.546;9.974;2023-09-18T11:09:08;100344.63;;;24.45;77.87
31062;BME280;17724;53.546;9.974;2023-09-18T11:13:09;100336.84;;;24.38;77.75
31062;BME280;17724;53.546;9.974;2023-09-18T11:21:30;100327.00;;;24.32;77.22
31062;BME280;17724;53.546;9.974;2023-09-18T11:29:36;100342.63;;;24.45;77.21
31062;BME280;17724;53.546;9.974;2023-09-18T11:33:41;100352.38;;;24.36;77.00
31062;BME280;17724;53.546;9.974;2023-09-18T11:37:45;100351.09;;;24.33;75.90
31062;BME280;17724;53.546;9.974;2023-09-18T11:41:46;100351.69;;;24.54;76.87
31062;BME280;17724;53.546;9.974;2023-09-18T11:45:53;100345.50;;;24.49;76.74
31062;BME280;17724;53.546;9.974;2023-09-18T11:49:56;100347.34;;;24.41;76.34
31062;BME280;17724;53.546;9.974;2023-09-18T11:54:00;100351.50;;;24.47;76.77
31062;BME280;17724;53.546;9.974;2023-09-18T11:58:04;100357.31;;;24.39;76.07
31062;BME280;17724;53.546;9.974;2023-09-18T12:02:04;100359.44;;;24.29;76.15
31062;BME280;17724;53.546;9.974;2023-09-18T12:06:08;100375.09;;;24.43;75.89
31062;BME280;17724;53.546;9.974;2023-09-18T12:10:18;100365.38;;;24.40;76.14
31062;BME280;17724;53.546;9.974;2023-09-18T12:14:20;100365.84;;;24.58;75.81
31062;BME280;17724;53.546;9.974;2023-09-18T12:18:20;100356.66;;;24.61;75.54
31062;BME280;17724;53.546;9.974;2023-09-18T12:22:24;100352.31;;;24.64;75.10
31062;BME280;17724;53.546;9.974;2023-09-18T12:26:26;100359.13;;;24.63;75.25
31062;BME280;17724;53.546;9.974;2023-09-18T12:30:27;100358.31;;;24.62;75.07
31062;BME280;17724;53.546;9.974;2023-09-18T12:34:28;100351.59;;;24.51;75.18
31062;BME280;17724;53.546;9.974;2023-09-18T12:38:28;100357.03;;;24.60;74.70
31062;BME280;17724;53.546;9.974;2023-09-18T12:42:29;100341.97;;;24.52;75.04
31062;BME280;17724;53.546;9.974;2023-09-18T12:46:29;100323.59;;;24.54;75.00
31062;BME280;17724;53.546;9.974;2023-09-18T12:50:31;100333.81;;;24.63;75.51
31062;BME280;17724;53.546;9.974;2023-09-18T12:54:41;100333.63;;;24.71;74.66
31062;BME280;17724;53.546;9.974;2023-09-18T12:58:42;100339.50;;;24.82;74.16
31062;BME280;17724;53.546;9.974;2023-09-18T13:02:44;100347.56;;;24.83;73.60
31062;BME280;17724;53.546;9.974;2023-09-18T13:06:45;100362.63;;;24.91;73.45
31062;BME280;17724;53.546;9.974;2023-09-18T13:10:47;100361.34;;;24.89;73.74
31062;BME280;17724;53.546;9.974;2023-09-18T13:15:00;100352.91;;;24.89;73.32
31062;BME280;17724;53.546;9.974;2023-09-18T13:19:14;100337.00;;;24.96;73.06
31062;BME280;17724;53.546;9.974;2023-09-18T13:23:14;100353.91;;;24.80;73.57
31062;BME280;17724;53.546;9.974;2023-09-18T13:27:15;100348.84;;;24.86;72.36
31062;BME280;17724;53.546;9.974;2023-09-18T13:31:16;100354.63;;;24.77;72.79
31062;BME280;17724;53.546;9.974;2023-09-18T13:35:18;100341.16;;;24.67;72.34
31062;BME280;17724;53.546;9.974;2023-09-18T13:39:19;100337.88;;;24.65;72.99
31062;BME280;17724;53.546;9.974;2023-09-18T13:43:21;100347.69;;;24.71;72.67
31062;BME280;17724;53.546;9.974;2023-09-18T13:47:24;100323.00;;;24.65;72.96
31062;BME280;17724;53.546;9.974;2023-09-18T13:51:25;100334.63;;;24.63;72.40
31062;BME280;17724;53.546;9.974;2023-09-18T13:55:25;100344.34;;;24.66;71.89
31062;BME280;17724;53.546;9.974;2023-09-18T13:59:26;100334.53;;;24.60;72.92
31062;BME280;17724;53.546;9.974;2023-09-18T14:03:28;100323.59;;;24.54;72.56
31062;BME280;17724;53.546;9.974;2023-09-18T14:07:29;100315.78;;;24.48;72.82
31062;BME280;17724;53.546;9.974;2023-09-18T14:11:29;100327.50;;;24.50;73.73
31062;BME280;17724;53.546;9.974;2023-09-18T14:15:31;100335.56;;;24.51;73.65
31062;BME280;17724;53.546;9.974;2023-09-18T14:19:32;100328.03;;;24.40;74.52
31062;BME280;17724;53.546;9.974;2023-09-18T14:23:33;100332.22;;;24.46;74.66
31062;BME280;17724;53.546;9.974;2023-09-18T14:27:34;100334.56;;;24.44;74.41
31062;BME280;17724;53.546;9.974;2023-09-18T14:31:39;100322.78;;;24.54;74.47
31062;BME280;17724;53.546;9.974;2023-09-18T14:35:39;100325.50;;;24.50;75.29
31062;BME280;17724;53.546;9.974;2023-09-18T14:39:40;100320.84;;;24.74;74.57
31062;BME280;17724;53.546;9.974;2023-09-18T14:43:40;100326.50;;;24.77;73.89
31062;BME280;17724;53.546;9.974;2023-09-18T14:47:41;100327.34;;;24.78;72.80
31062;BME280;17724;53.546;9.974;2023-09-18T14:51:42;100315.00;;;24.82;72.29
31062;BME280;17724;53.546;9.974;2023-09-18T14:55:42;100332.63;;;24.64;70.14
31062;BME280;17724;53.546;9.974;2023-09-18T14:59:43;100323.84;;;24.49;70.41
31062;BME280;17724;53.546;9.974;2023-09-18T15:03:47;100314.16;;;24.47;70.92
31062;BME280;17724;53.546;9.974;2023-09-18T15:07:51;100316.94;;;24.31;71.31
31062;BME280;17724;53.546;9.974;2023-09-18T15:11:52;100306.44;;;24.28;70.96
31062;BME280;17724;53.546;9.974;2023-09-18T15:15:52;100317.31;;;24.45;70.85
31062;BME280;17724;53.546;9.974;2023-09-18T15:19:53;100310.66;;;24.38;70.71
31062;BME280;17724;53.546;9.974;2023-09-18T15:23:55;100321.41;;;24.48;70.82
31062;BME280;17724;53.546;9.974;2023-09-18T15:27:57;100334.66;;;24.47;71.22
31062;BME280;17724;53.546;9.974;2023-09-18T15:31:58;100327.66;;;24.57;70.72
31062;BME280;17724;53.546;9.974;2023-09-18T15:36:00;100322.09;;;24.61;71.20
31062;BME280;17724;53.546;9.974;2023-09-18T15:40:00;100319.84;;;24.66;71.22
31062;BME280;17724;53.546;9.974;2023-09-18T15:44:04;100326.84;;;24.56;71.18
31062;BME280;17724;53.546;9.974;2023-09-18T15:48:10;100321.38;;;24.64;72.02
31062;BME280;17724;53.546;9.974;2023-09-18T15:52:11;100315.75;;;24.64;70.82
31062;BME280;17724;53.546;9.974;2023-09-18T15:56:12;100321.75;;;24.62;71.20
31062;BME280;17724;53.546;9.974;2023-09-18T16:00:13;100301.09;;;24.54;71.47
31062;BME280;17724;53.546;9.974;2023-09-18T16:04:17;100311.06;;;24.52;71.74
31062;BME280;17724;53.546;9.974;2023-09-18T16:08:19;100311.25;;;24.43;71.41
31062;BME280;17724;53.546;9.974;2023-09-18T16:12:19;100303.25;;;24.45;71.60
31062;BME280;17724;53.546;9.974;2023-09-18T16:16:20;100303.63;;;24.44;71.64
31062;BME280;17724;53.546;9.974;2023-09-18T16:20:23;100303.81;;;24.35;71.24
31062;BME280;17724;53.546;9.974;2023-09-18T16:24:24;100295.81;;;24.37;71.09
31062;BME280;17724;53.546;9.974;2023-09-18T16:28:24;100295.09;;;24.24;71.30
31062;BME280;17724;53.546;9.974;2023-09-18T16:32:28;100297.91;;;24.24;71.39
31062;BME280;17724;53.546;9.974;2023-09-18T16:36:29;100294.66;;;24.22;71.83
31062;BME280;17724;53.546;9.974;2023-09-18T16:40:29;100299.19;;;24.27;72.32
31062;BME280;17724;53.546;9.974;2023-09-18T16:44:30;100297.47;;;24.22;72.77
31062;BME280;17724;53.546;9.974;2023-09-18T16:48:30;100293.91;;;24.25;72.99
31062;BME280;17724;53.546;9.974;2023-09-18T16:52:31;100299.28;;;24.30;73.86
31062;BME280;17724;53.546;9.974;2023-09-18T16:56:32;100291.75;;;24.19;73.93
31062;BME280;17724;53.546;9.974;2023-09-18T17:00:36;100291.09;;;24.25;73.03
31062;BME280;17724;53.546;9.974;2023-09-18T17:04:36;100286.84;;;24.16;72.85
31062;BME280;17724;53.546;9.974;2023-09-18T17:08:40;100286.31;;;24.10;73.12
31062;BME280;17724;53.546;9.974;2023-09-18T17:12:40;100284.06;;;24.16;72.92
31062;BME280;17724;53.546;9.974;2023-09-18T17:16:41;100274.25;;;24.09;73.73
31062;BME280;17724;53.546;9.974;2023-09-18T17:20:41;100276.81;;;23.99;74.44
31062;BME280;17724;53.546;9.974;2023-09-18T17:25:01;100277.78;;;23.91;73.95
31062;BME280;17724;53.546;9.974;2023-09-18T17:29:02;100264.91;;;23.90;74.16
31062;BME280;17724;53.546;9.974;2023-09-18T17:33:03;100268.28;;;23.79;75.26
31062;BME280;17724;53.546;9.974;2023-09-18T17:37:06;100271.09;;;23.79;74.72
31062;BME280;17724;53.546;9.974;2023-09-18T17:41:06;100267.81;;;23.49;76.25
31062;BME280;17724;53.546;9.974;2023-09-18T17:45:08;100259.75;;;23.48;76.75
31062;BME280;17724;53.546;9.974;2023-09-18T17:49:09;100251.63;;;23.43;77.82
31062;BME280;17724;53.546;9.974;2023-09-18T17:53:10;100237.38;;;23.07;80.66
31062;BME280;17724;53.546;9.974;2023-09-18T17:57:10;100235.91;;;22.85;82.77
31062;BME280;17724;53.546;9.974;2023-09-18T18:01:11;100225.84;;;22.97;82.15
31062;BME280;17724;53.546;9.974;2023-09-18T18:05:12;100226.56;;;22.94;82.22
31062;BME280;17724;53.546;9.974;2023-09-18T18:09:12;100222.34;;;23.00;82.81
31062;BME280;17724;53.546;9.974;2023-09-18T18:13:13;100232.28;;;22.97;82.21
31062;BME280;17724;53.546;9.974;2023-09-18T18:17:14;100228.66;;;22.97;81.67
31062;BME280;17724;53.546;9.974;2023-09-18T18:21:14;100234.84;;;23.02;81.86
31062;BME280;17724;53.546;9.974;2023-09-18T18:25:15;100239.16;;;23.00;81.38
31062;BME280;17724;53.546;9.974;2023-09-18T18:29:18;100240.34;;;22.99;81.80
31062;BME280;17724;53.546;9.974;2023-09-18T18:33:19;100237.88;;;22.97;81.38
31062;BME280;17724;53.546;9.974;2023-09-18T18:37:21;100238.13;;;22.92;81.42
31062;BME280;17724;53.546;9.974;2023-09-18T18:41:21;100250.06;;;22.77;82.17
31062;BME280;17724;53.546;9.974;2023-09-18T18:45:22;100247.00;;;22.82;82.00
31062;BME280;17724;53.546;9.974;2023-09-18T18:49:23;100243.38;;;22.81;82.24
31062;BME280;17724;53.546;9.974;2023-09-18T18:53:24;100249.91;;;22.85;81.98
31062;BME280;17724;53.546;9.974;2023-09-18T18:57:25;100248.53;;;22.79;82.79
31062;BME280;17724;53.546;9.974;2023-09-18T19:01:26;100241.09;;;22.71;82.23
31062;BME280;17724;53.546;9.974;2023-09-18T19:05:28;100225.69;;;22.65;83.25
31062;BME280;17724;53.546;9.974;2023-09-18T19:09:28;100239.69;;;22.65;83.25
31062;BME280;17724;53.546;9.974;2023-09-18T19:13:29;100226.50;;;22.53;82.95
31062;BME280;17724;53.546;9.974;2023-09-18T19:17:29;100247.16;;;22.61;83.62
31062;BME280;17724;53.546;9.974;2023-09-18T19:21:30;100236.31;;;22.59;83.04
31062;BME280;17724;53.546;9.974;2023-09-18T19:25:31;100236.56;;;22.67;82.73
31062;BME280;17724;53.546;9.974;2023-09-18T19:29:34;100225.16;;;22.47;83.61
31062;BME280;17724;53.546;9.974;2023-09-18T19:33:34;100227.59;;;22.49;84.04
31062;BME280;17724;53.546;9.974;2023-09-18T19:37:38;100225.38;;;22.54;83.43
31062;BME280;17724;53.546;9.974;2023-09-18T19:41:42;100212.06;;;22.51;83.55
31062;BME280;17724;53.546;9.974;2023-09-18T19:45:43;100211.59;;;22.49;83.45
31062;BME280;17724;53.546;9.974;2023-09-18T19:49:44;100208.56;;;22.54;82.33
31062;BME280;17724;53.546;9.974;2023-09-18T19:53:45;100206.47;;;22.39;83.20
31062;BME280;17724;53.546;9.974;2023-09-18T19:57:45;100204.81;;;22.38;83.16
31062;BME280;17724;53.546;9.974;2023-09-18T20:01:46;100192.25;;;22.32;83.84
31062;BME280;17724;53.546;9.974;2023-09-18T20:05:47;100191.44;;;22.31;83.79
31062;BME280;17724;53.546;9.974;2023-09-18T20:09:47;100168.66;;;22.08;84.63
31062;BME280;17724;53.546;9.974;2023-09-18T20:13:49;100174.88;;;22.14;84.13
31062;BME280;17724;53.546;9.974;2023-09-18T20:17:49;100224.56;;;22.17;84.36
31062;BME280;17724;53.546;9.974;2023-09-18T20:21:51;100289.84;;;21.39;89.45
31062;BME280;17724;53.546;9.974;2023-09-18T20:25:52;100285.59;;;20.70;91.37
31062;BME280;17724;53.546;9.974;2023-09-18T20:29:53;100268.13;;;20.14;91.61
31062;BME280;17724;53.546;9.974;2023-09-18T20:33:53;100245.38;;;19.94;91.48
31062;BME280;17724;53.546;9.974;2023-09-18T20:37:54;100250.59;;;19.75;91.42
31062;BME280;17724;53.546;9.974;2023-09-18T20:41:54;100253.25;;;19.63;90.61
31062;BME280;17724;53.546;9.974;2023-09-18T20:45:56;100246.66;;;19.67;91.62
31062;BME280;17724;53.546;9.974;2023-09-18T20:49:57;100256.16;;;19.66;90.92
31062;BME280;17724;53.546;9.974;2023-09-18T20:53:58;100272.41;;;19.56;91.14
31062;BME280;17724;53.546;9.974;2023-09-18T20:58:02;100275.06;;;19.43;93.58
31062;BME280;17724;53.546;9.974;2023-09-18T21:02:03;100264.13;;;19.04;95.48
31062;BME280;17724;53.546;9.974;2023-09-18T21:06:04;100258.06;;;18.84;97.70
31062;BME280;17724;53.546;9.974;2023-09-18T21:10:05;100252.16;;;18.77;99.26
31062;BME280;17724;53.546;9.974;2023-09-18T21:14:05;100230.66;;;18.60;100.00